This is the latest recevied weather packets stored in our database for station/object OE-11140. If no packets are shown the sender has not sent any weather packets the latest 10 day(s).
| Time | Temp. | Humidity | Pressure | Rain* | Wind** | Luminosity | Snow |
|---|---|---|---|---|---|---|---|
| 1788188117 | 22.78° C | 58% | 1014.8 hPa | 0 mm | - | 33 W/m² | - |
| 1788187517 | 22.78° C | 58% | 1014.7 hPa | 0 mm | - | 46 W/m² | - |
| 1788186917 | 23.33° C | 58% | 1014.5 hPa | 0 mm | - | 80 W/m² | - |
| 1788186317 | 23.33° C | 57% | 1014.4 hPa | 0 mm | - | 73 W/m² | - |
| 1788185717 | 23.33° C | 57% | 1014.3 hPa | 0 mm | - | 133 W/m² | - |
| 1788185117 | 23.33° C | 58% | 1014.3 hPa | 0 mm | - | 186 W/m² | - |
| 1788184517 | 23.33° C | 57% | 1014.3 hPa | 0 mm | - | 239 W/m² | - |
| 1788183917 | 23.33° C | 57% | 1014.4 hPa | 0 mm | - | 199 W/m² | - |
| 1788182717 | 23.89° C | 54% | 1014.2 hPa | 0 mm | - | 484 W/m² | - |
| 1788182117 | 24.44° C | 56% | 1014.1 hPa | 0 mm | - | 424 W/m² | - |
| 1788181517 | 24.44° C | 52% | 1014.1 hPa | 0 mm | - | 510 W/m² | - |
| 1788180090 | 25.56° C | 54% | 1013.9 hPa | 0 mm | - | 835 W/m² | - |
| 1788179717 | 25° C | 52% | 1014 hPa | 0 mm | - | 862 W/m² | - |
| 1788178290 | 25° C | 51% | 1014 hPa | 0 mm | - | 868 W/m² | - |
| 1788177917 | 25° C | 51% | 1014.1 hPa | 0 mm | - | 895 W/m² | - |
| 1788177317 | 24.44° C | 52% | 1014.3 hPa | 0 mm | - | 815 W/m² | - |
| 1788176490 | 23.89° C | 53% | 1014.4 hPa | 0 mm | - | 497 W/m² | - |
| 1788176117 | 24.44° C | 53% | 1014.3 hPa | 0 mm | - | 709 W/m² | - |
| 1788175517 | 24.44° C | 52% | 1014.4 hPa | 0 mm | - | 649 W/m² | - |
| 1788174690 | 23.89° C | 52% | 1014.6 hPa | 0 mm | - | 881 W/m² | - |
| 1788174317 | 23.89° C | 58% | 1014.6 hPa | 0 mm | - | 862 W/m² | - |
| 1788172890 | 23.33° C | 57% | 1015.1 hPa | 0 mm | - | 716 W/m² | - |
| 1788171917 | 22.78° C | 67% | 1015.4 hPa | 0 mm | - | 616 W/m² | - |
| 1788171090 | 22.22° C | 65% | 1015.5 hPa | 0 mm | - | 842 W/m² | - |
| 1788170717 | 22.22° C | 69% | 1015.8 hPa | 0 mm | - | 795 W/m² | - |
* Rain latest hour (hover to see other rain measurements)
** Current wind speed in m/s (hover to see current wind gust speed)